createdAt,value
2018-05-24T00:03:10.714Z,3.70
2018-05-24T00:08:05.060Z,3.40
2018-05-24T00:12:59.442Z,3.67
2018-05-24T00:17:53.936Z,3.70
2018-05-24T00:22:48.414Z,3.67
2018-05-24T00:27:42.751Z,3.23
2018-05-24T00:32:37.118Z,3.30
2018-05-24T00:37:31.534Z,3.80
2018-05-24T00:42:25.876Z,3.30
2018-05-24T00:47:20.392Z,3.40
2018-05-24T00:52:14.749Z,2.97
2018-05-24T00:57:09.264Z,3.13
2018-05-24T01:02:03.605Z,3.37
2018-05-24T01:06:59.081Z,3.60
2018-05-24T01:11:53.435Z,3.33
2018-05-24T01:16:48.538Z,3.00
2018-05-24T01:21:42.910Z,3.43
2018-05-24T01:26:37.026Z,3.40
2018-05-24T01:31:31.516Z,3.67
2018-05-24T01:36:43.098Z,3.20
2018-05-24T01:41:37.452Z,3.50
2018-05-24T01:46:31.822Z,3.57
2018-05-24T01:51:26.158Z,3.73
2018-05-24T01:56:20.517Z,3.60
2018-05-24T02:01:14.894Z,3.43
2018-05-24T02:06:09.996Z,3.73
2018-05-24T02:11:04.374Z,3.87
2018-05-24T02:15:58.720Z,3.67
2018-05-24T02:20:54.056Z,3.43
2018-05-24T02:25:48.568Z,3.80
2018-05-24T02:30:42.947Z,3.73
2018-05-24T02:35:38.082Z,3.80
2018-05-24T02:40:32.529Z,4.47
2018-05-24T02:45:26.867Z,3.90
2018-05-24T02:50:22.158Z,3.90
2018-05-24T02:55:16.510Z,3.37
2018-05-24T03:00:12.038Z,3.50
2018-05-24T03:05:07.159Z,3.57
2018-05-24T03:10:02.308Z,3.60
2018-05-24T03:14:56.660Z,3.30
2018-05-24T03:19:51.079Z,3.33
2018-05-24T03:24:46.203Z,3.43
2018-05-24T03:29:41.313Z,3.67
2018-05-24T03:34:36.420Z,3.70
2018-05-24T03:39:30.776Z,3.97
2018-05-24T03:44:25.354Z,3.77
2018-05-24T03:49:20.220Z,3.50
2018-05-24T03:54:14.601Z,4.07
2018-05-24T04:15:08.190Z,4.27
2018-05-24T04:20:02.534Z,4.27
2018-05-24T04:24:56.893Z,4.07
2018-05-24T04:29:51.250Z,4.27
2018-05-24T04:34:47.385Z,4.57
2018-05-24T04:39:41.715Z,4.50
2018-05-24T04:44:36.896Z,4.50
2018-05-24T04:49:31.297Z,4.50
2018-05-24T04:54:26.242Z,4.67
2018-05-24T04:59:21.361Z,4.30
2018-05-24T05:04:15.878Z,4.50
2018-05-24T05:09:10.981Z,4.20
2018-05-24T05:14:05.989Z,3.63
2018-05-24T05:19:00.421Z,4.10
2018-05-24T05:23:55.702Z,3.47
2018-05-24T05:28:50.053Z,3.90
2018-05-24T05:33:45.180Z,3.93
2018-05-24T05:38:39.521Z,3.60
2018-05-24T05:43:33.892Z,3.87
2018-05-24T05:48:28.130Z,3.83
2018-05-24T05:53:22.818Z,3.40
2018-05-24T05:58:17.340Z,3.73
2018-05-24T06:03:13.804Z,3.60
2018-05-24T06:08:08.929Z,3.50
2018-05-24T06:13:03.400Z,3.30
2018-05-24T06:17:57.927Z,3.90
2018-05-24T06:22:52.274Z,3.77
2018-05-24T06:27:47.428Z,3.60
2018-05-24T06:32:41.964Z,3.77
2018-05-24T06:37:36.324Z,3.50
2018-05-24T06:42:30.683Z,3.80
2018-05-24T06:47:25.146Z,3.60
2018-05-24T06:52:19.490Z,3.30
2018-05-24T06:57:13.849Z,2.97
2018-05-24T07:02:08.430Z,2.93
2018-05-24T07:07:02.906Z,3.13
2018-05-24T07:11:58.163Z,3.27
2018-05-24T07:16:52.816Z,3.30
2018-05-24T07:21:47.158Z,3.00
2018-05-24T07:26:42.274Z,3.17
2018-05-24T07:31:37.703Z,3.70
2018-05-24T07:36:32.831Z,3.30
2018-05-24T07:41:29.732Z,3.30
2018-05-24T07:46:24.844Z,3.37
2018-05-24T07:51:19.463Z,3.17
2018-05-24T07:56:15.223Z,3.70
2018-05-24T08:01:09.587Z,3.20
2018-05-24T08:06:04.074Z,3.20
2018-05-24T08:10:58.426Z,3.03
2018-05-24T08:15:52.830Z,4.00
2018-05-24T08:20:47.972Z,3.40
2018-05-24T08:25:42.676Z,3.43
2018-05-24T08:30:37.042Z,3.70
2018-05-24T08:35:32.494Z,3.47
2018-05-24T08:40:27.508Z,3.40
2018-05-24T08:45:22.157Z,3.30
2018-05-24T08:50:16.777Z,3.20
2018-05-24T08:55:11.411Z,3.30
2018-05-24T09:00:06.806Z,3.27
2018-05-24T09:05:01.694Z,2.97
2018-05-24T09:09:56.500Z,3.30
2018-05-24T09:14:51.123Z,3.10
2018-05-24T09:19:45.765Z,2.67
2018-05-24T09:24:40.393Z,2.90
2018-05-24T09:29:35.791Z,2.93
2018-05-24T09:34:30.600Z,3.07
2018-05-24T09:39:25.231Z,3.20
2018-05-24T09:44:20.635Z,3.20
2018-05-24T09:49:15.499Z,3.37
2018-05-24T09:54:10.139Z,3.37
2018-05-24T09:59:04.797Z,3.83
2018-05-24T10:04:00.206Z,3.67
2018-05-24T10:08:54.841Z,4.17
2018-05-24T10:13:49.644Z,4.03
2018-05-24T10:18:45.039Z,4.57
2018-05-24T10:23:39.860Z,4.30
2018-05-24T10:28:34.762Z,5.20
2018-05-24T10:33:29.517Z,5.00
2018-05-24T10:38:24.912Z,5.60
2018-05-24T10:43:19.663Z,5.00
2018-05-24T10:48:14.026Z,5.40
2018-05-24T10:53:09.385Z,5.20
2018-05-24T10:58:03.754Z,6.00
2018-05-24T11:02:58.209Z,5.27
2018-05-24T11:07:52.738Z,5.37
2018-05-24T11:12:47.848Z,5.47
2018-05-24T11:17:42.190Z,5.90
2018-05-24T11:22:36.582Z,5.70
2018-05-24T11:27:31.721Z,5.40
2018-05-24T11:32:26.148Z,6.97
2018-05-24T11:37:20.543Z,6.60
2018-05-24T11:42:15.925Z,5.70
2018-05-24T11:47:11.072Z,6.57
2018-05-24T11:52:05.515Z,6.47
2018-05-24T11:57:00.099Z,5.90
2018-05-24T12:01:54.551Z,6.40
2018-05-24T12:06:48.990Z,6.63
2018-05-24T12:11:43.412Z,7.23
2018-05-24T12:16:37.760Z,6.93
2018-05-24T12:21:32.136Z,7.13
2018-05-24T12:26:26.623Z,6.50
2018-05-24T12:31:21.073Z,6.50
2018-05-24T12:36:16.308Z,6.60
2018-05-24T12:41:11.471Z,6.90
2018-05-24T12:46:05.824Z,7.03
2018-05-24T12:51:00.278Z,7.13
2018-05-24T12:55:54.810Z,6.77
2018-05-24T13:00:49.173Z,6.37
2018-05-24T13:05:43.526Z,6.47
2018-05-24T13:10:37.878Z,6.60
2018-05-24T13:15:32.290Z,6.70
2018-05-24T13:20:26.669Z,6.53
2018-05-24T13:25:21.018Z,6.80
2018-05-24T13:30:15.376Z,6.23
2018-05-24T13:35:09.757Z,6.90
2018-05-24T13:40:04.863Z,6.07
2018-05-24T13:44:59.425Z,6.33
2018-05-24T13:49:53.769Z,6.13
2018-05-24T13:54:48.142Z,5.93
2018-05-24T13:59:42.284Z,6.87
2018-05-24T14:04:37.385Z,6.67
2018-05-24T14:09:31.790Z,6.87
2018-05-24T14:14:26.152Z,6.83
2018-05-24T14:19:20.500Z,6.93
2018-05-24T14:24:15.078Z,6.80
2018-05-24T14:29:09.417Z,7.57
2018-05-24T14:34:03.875Z,7.40
2018-05-24T14:38:58.230Z,8.30
2018-05-24T14:43:53.534Z,8.57
2018-05-24T14:48:47.904Z,10.17
2018-05-24T14:53:42.271Z,9.23
2018-05-24T14:58:36.847Z,9.37
2018-05-24T15:03:31.204Z,10.00
2018-05-24T15:08:25.561Z,9.33
2018-05-24T15:13:37.825Z,9.73
2018-05-24T15:18:32.484Z,8.73
2018-05-24T15:23:27.415Z,8.20
2018-05-24T15:28:22.544Z,8.47
2018-05-24T15:33:17.713Z,7.47
2018-05-24T15:38:12.196Z,6.93
2018-05-24T15:43:06.553Z,6.87
2018-05-24T15:48:00.922Z,6.30
2018-05-24T15:52:55.285Z,6.97
2018-05-24T15:57:49.660Z,6.20
2018-05-24T16:02:44.160Z,6.37
2018-05-24T16:07:38.650Z,6.40
2018-05-24T16:12:33.223Z,6.00
2018-05-24T16:17:28.522Z,5.80
2018-05-24T16:22:23.113Z,6.00
2018-05-24T16:27:17.474Z,5.80
2018-05-24T16:32:12.091Z,5.67
2018-05-24T16:37:06.219Z,6.20
2018-05-24T16:42:00.629Z,5.57
2018-05-24T16:46:55.113Z,5.07
2018-05-24T16:51:49.451Z,5.23
2018-05-24T16:56:44.020Z,5.90
2018-05-24T17:01:38.475Z,5.50
2018-05-24T17:06:33.421Z,5.60
2018-05-24T17:11:28.152Z,5.00
2018-05-24T17:16:22.493Z,4.93
2018-05-24T17:21:16.854Z,4.87
2018-05-24T17:26:11.209Z,4.70
2018-05-24T17:31:06.326Z,4.60
2018-05-24T17:36:01.199Z,4.53
2018-05-24T17:57:23.762Z,4.00
2018-05-24T18:02:23.792Z,4.03
2018-05-24T18:12:40.562Z,4.40
2018-05-24T18:17:35.007Z,4.40
2018-05-24T18:22:29.574Z,3.90
2018-05-24T18:32:47.318Z,4.30
2018-05-24T18:37:41.717Z,4.20
2018-05-24T18:42:36.254Z,3.90
2018-05-24T18:47:31.492Z,4.83
2018-05-24T18:52:26.966Z,5.37
2018-05-24T19:13:29.037Z,6.17
2018-05-24T19:18:33.526Z,6.43
2018-05-24T19:23:27.926Z,6.40
2018-05-24T19:28:22.275Z,6.10
2018-05-24T19:33:17.442Z,6.53
2018-05-24T19:38:11.813Z,6.33
2018-05-24T19:43:06.935Z,6.50
2018-05-24T19:48:02.063Z,6.80
2018-05-24T19:52:56.953Z,6.90
2018-05-24T19:57:53.530Z,6.50
2018-05-24T20:02:48.415Z,6.37
2018-05-24T20:07:42.836Z,6.63
2018-05-24T20:12:38.881Z,6.50
2018-05-24T20:17:33.633Z,6.63
2018-05-24T20:22:28.183Z,6.20
2018-05-24T20:27:23.311Z,6.03
2018-05-24T20:32:18.778Z,6.90
2018-05-24T20:37:13.126Z,6.87
2018-05-24T20:42:07.588Z,7.43
2018-05-24T20:47:01.958Z,7.40
2018-05-24T20:51:57.216Z,7.67
2018-05-24T20:56:51.923Z,7.87
2018-05-24T21:01:46.684Z,8.63
2018-05-24T21:06:41.642Z,8.40
2018-05-24T21:11:36.289Z,8.80
2018-05-24T21:16:31.169Z,8.50
2018-05-24T21:21:26.125Z,9.30
2018-05-24T21:26:21.736Z,9.53
2018-05-24T21:31:16.604Z,10.27
2018-05-24T21:36:12.569Z,9.67
2018-05-24T21:41:07.393Z,9.73
2018-05-24T21:46:03.621Z,10.50
2018-05-24T21:50:59.278Z,10.03
2018-05-24T21:55:53.856Z,10.03
2018-05-24T22:00:51.216Z,10.53
2018-05-24T22:05:45.599Z,11.27
2018-05-24T22:10:39.973Z,11.03
2018-05-24T22:15:34.489Z,11.50
2018-05-24T22:20:29.290Z,10.97
2018-05-24T22:25:23.642Z,11.23
2018-05-24T22:30:18.800Z,11.07
2018-05-24T22:35:13.208Z,11.77
2018-05-24T22:40:07.562Z,10.97
2018-05-24T22:45:02.889Z,10.43
2018-05-24T22:49:57.998Z,11.07
2018-05-24T22:54:52.693Z,12.07
2018-05-24T22:59:47.207Z,11.87
2018-05-24T23:04:41.754Z,11.53
2018-05-24T23:09:36.132Z,11.83
2018-05-24T23:14:31.250Z,12.57
2018-05-24T23:19:26.546Z,12.67
2018-05-24T23:24:20.934Z,12.97
2018-05-24T23:29:15.397Z,13.20
2018-05-24T23:34:09.760Z,13.70
2018-05-24T23:39:03.878Z,13.00
2018-05-24T23:43:59.026Z,13.33
2018-05-24T23:48:54.311Z,13.80
2018-05-24T23:53:49.595Z,13.00
2018-05-24T23:58:44.252Z,13.47
